sensor_id;sensor_type;location;lat;lon;timestamp;P1;durP1;ratioP1;P2;durP2;ratioP2
21486;SDS011;10905;50.822;4.336;2023-06-22T00:00:46;0.13;;;0.13;;
21486;SDS011;10905;50.822;4.336;2023-06-22T00:03:13;2.95;;;0.55;;
21486;SDS011;10905;50.822;4.336;2023-06-22T00:05:39;0.90;;;0.55;;
21486;SDS011;10905;50.822;4.336;2023-06-22T00:08:04;0.00;;;0.00;;
21486;SDS011;10905;50.822;4.336;2023-06-22T00:10:30;0.98;;;0.30;;
21486;SDS011;10905;50.822;4.336;2023-06-22T00:12:56;2.72;;;0.17;;
21486;SDS011;10905;50.822;4.336;2023-06-22T00:15:21;0.13;;;0.13;;
21486;SDS011;10905;50.822;4.336;2023-06-22T00:17:47;0.55;;;0.47;;
21486;SDS011;10905;50.822;4.336;2023-06-22T00:20:14;0.00;;;0.00;;
21486;SDS011;10905;50.822;4.336;2023-06-22T00:22:40;0.00;;;0.00;;
21486;SDS011;10905;50.822;4.336;2023-06-22T00:25:06;0.00;;;0.00;;
21486;SDS011;10905;50.822;4.336;2023-06-22T00:27:32;0.20;;;0.10;;
21486;SDS011;10905;50.822;4.336;2023-06-22T00:29:58;0.60;;;0.47;;
21486;SDS011;10905;50.822;4.336;2023-06-22T00:32:23;0.15;;;0.15;;
21486;SDS011;10905;50.822;4.336;2023-06-22T00:34:49;0.00;;;0.00;;
21486;SDS011;10905;50.822;4.336;2023-06-22T00:37:15;0.10;;;0.10;;
21486;SDS011;10905;50.822;4.336;2023-06-22T00:39:42;0.15;;;0.08;;
21486;SDS011;10905;50.822;4.336;2023-06-22T00:42:08;0.03;;;0.03;;
21486;SDS011;10905;50.822;4.336;2023-06-22T00:44:34;0.08;;;0.03;;
21486;SDS011;10905;50.822;4.336;2023-06-22T00:47:01;2.00;;;0.38;;
21486;SDS011;10905;50.822;4.336;2023-06-22T00:49:27;0.30;;;0.30;;
21486;SDS011;10905;50.822;4.336;2023-06-22T00:51:53;0.28;;;0.22;;
21486;SDS011;10905;50.822;4.336;2023-06-22T00:54:19;0.15;;;0.13;;
21486;SDS011;10905;50.822;4.336;2023-06-22T00:56:49;0.40;;;0.30;;
21486;SDS011;10905;50.822;4.336;2023-06-22T00:59:19;3.10;;;0.55;;
21486;SDS011;10905;50.822;4.336;2023-06-22T01:01:46;0.00;;;0.00;;
21486;SDS011;10905;50.822;4.336;2023-06-22T01:04:11;0.45;;;0.20;;
21486;SDS011;10905;50.822;4.336;2023-06-22T01:06:38;0.10;;;0.10;;
21486;SDS011;10905;50.822;4.336;2023-06-22T01:09:14;0.50;;;0.45;;
21486;SDS011;10905;50.822;4.336;2023-06-22T01:11:45;0.20;;;0.15;;
21486;SDS011;10905;50.822;4.336;2023-06-22T01:14:38;0.00;;;0.00;;
21486;SDS011;10905;50.822;4.336;2023-06-22T01:17:12;0.95;;;0.35;;
21486;SDS011;10905;50.822;4.336;2023-06-22T01:19:45;0.05;;;0.00;;
21486;SDS011;10905;50.822;4.336;2023-06-22T01:22:15;0.00;;;0.00;;
21486;SDS011;10905;50.822;4.336;2023-06-22T01:29:39;0.17;;;0.17;;
21486;SDS011;10905;50.822;4.336;2023-06-22T01:32:07;0.03;;;0.03;;
21486;SDS011;10905;50.822;4.336;2023-06-22T01:34:34;0.40;;;0.40;;
21486;SDS011;10905;50.822;4.336;2023-06-22T01:37:01;0.00;;;0.00;;
21486;SDS011;10905;50.822;4.336;2023-06-22T01:39:28;0.00;;;0.00;;
21486;SDS011;10905;50.822;4.336;2023-06-22T01:41:55;0.98;;;0.40;;
21486;SDS011;10905;50.822;4.336;2023-06-22T01:44:22;0.30;;;0.08;;
21486;SDS011;10905;50.822;4.336;2023-06-22T01:46:49;0.00;;;0.00;;
21486;SDS011;10905;50.822;4.336;2023-06-22T01:49:16;0.00;;;0.00;;
21486;SDS011;10905;50.822;4.336;2023-06-22T01:51:41;0.00;;;0.00;;
21486;SDS011;10905;50.822;4.336;2023-06-22T01:54:07;0.10;;;0.10;;
21486;SDS011;10905;50.822;4.336;2023-06-22T01:56:33;0.55;;;0.50;;
21486;SDS011;10905;50.822;4.336;2023-06-22T02:01:35;0.45;;;0.30;;
21486;SDS011;10905;50.822;4.336;2023-06-22T02:04:20;0.52;;;0.30;;
21486;SDS011;10905;50.822;4.336;2023-06-22T02:06:51;0.55;;;0.20;;
21486;SDS011;10905;50.822;4.336;2023-06-22T02:09:22;2.03;;;0.85;;
21486;SDS011;10905;50.822;4.336;2023-06-22T02:11:50;0.20;;;0.20;;
21486;SDS011;10905;50.822;4.336;2023-06-22T02:14:19;0.70;;;0.30;;
21486;SDS011;10905;50.822;4.336;2023-06-22T02:16:46;0.20;;;0.20;;
21486;SDS011;10905;50.822;4.336;2023-06-22T02:19:12;0.15;;;0.15;;
21486;SDS011;10905;50.822;4.336;2023-06-22T02:24:09;0.00;;;0.00;;
21486;SDS011;10905;50.822;4.336;2023-06-22T02:26:34;0.10;;;0.10;;
21486;SDS011;10905;50.822;4.336;2023-06-22T02:29:01;0.08;;;0.00;;
21486;SDS011;10905;50.822;4.336;2023-06-22T02:31:27;0.45;;;0.30;;
21486;SDS011;10905;50.822;4.336;2023-06-22T02:33:55;0.38;;;0.20;;
21486;SDS011;10905;50.822;4.336;2023-06-22T02:36:24;0.52;;;0.35;;
21486;SDS011;10905;50.822;4.336;2023-06-22T02:38:51;0.00;;;0.00;;
21486;SDS011;10905;50.822;4.336;2023-06-22T02:41:19;0.52;;;0.20;;
21486;SDS011;10905;50.822;4.336;2023-06-22T02:43:45;0.35;;;0.35;;
21486;SDS011;10905;50.822;4.336;2023-06-22T02:46:11;0.00;;;0.00;;
21486;SDS011;10905;50.822;4.336;2023-06-22T02:48:38;0.15;;;0.15;;
21486;SDS011;10905;50.822;4.336;2023-06-22T02:51:05;0.63;;;0.10;;
21486;SDS011;10905;50.822;4.336;2023-06-22T02:53:30;0.00;;;0.00;;
21486;SDS011;10905;50.822;4.336;2023-06-22T02:55:57;0.70;;;0.47;;
21486;SDS011;10905;50.822;4.336;2023-06-22T02:58:23;0.22;;;0.22;;
21486;SDS011;10905;50.822;4.336;2023-06-22T03:00:49;3.00;;;1.10;;
21486;SDS011;10905;50.822;4.336;2023-06-22T03:03:18;0.20;;;0.15;;
21486;SDS011;10905;50.822;4.336;2023-06-22T03:05:44;0.10;;;0.10;;
21486;SDS011;10905;50.822;4.336;2023-06-22T03:08:09;0.20;;;0.20;;
21486;SDS011;10905;50.822;4.336;2023-06-22T03:10:35;0.15;;;0.15;;
21486;SDS011;10905;50.822;4.336;2023-06-22T03:13:00;1.00;;;0.35;;
21486;SDS011;10905;50.822;4.336;2023-06-22T03:15:26;1.85;;;0.80;;
21486;SDS011;10905;50.822;4.336;2023-06-22T03:17:54;1.55;;;0.30;;
21486;SDS011;10905;50.822;4.336;2023-06-22T03:20:19;0.43;;;0.22;;
21486;SDS011;10905;50.822;4.336;2023-06-22T03:22:45;1.08;;;0.10;;
21486;SDS011;10905;50.822;4.336;2023-06-22T03:25:11;0.82;;;0.20;;
21486;SDS011;10905;50.822;4.336;2023-06-22T03:27:40;0.45;;;0.43;;
21486;SDS011;10905;50.822;4.336;2023-06-22T03:30:07;1.20;;;0.65;;
21486;SDS011;10905;50.822;4.336;2023-06-22T03:32:34;0.20;;;0.20;;
21486;SDS011;10905;50.822;4.336;2023-06-22T03:34:59;0.25;;;0.25;;
21486;SDS011;10905;50.822;4.336;2023-06-22T03:37:25;3.63;;;1.05;;
21486;SDS011;10905;50.822;4.336;2023-06-22T03:39:52;0.85;;;0.38;;
21486;SDS011;10905;50.822;4.336;2023-06-22T03:42:17;0.30;;;0.30;;
21486;SDS011;10905;50.822;4.336;2023-06-22T03:44:43;0.73;;;0.73;;
21486;SDS011;10905;50.822;4.336;2023-06-22T03:47:09;0.10;;;0.10;;
21486;SDS011;10905;50.822;4.336;2023-06-22T03:49:35;1.00;;;0.32;;
21486;SDS011;10905;50.822;4.336;2023-06-22T03:52:01;1.35;;;0.65;;
21486;SDS011;10905;50.822;4.336;2023-06-22T03:54:28;1.65;;;0.52;;
21486;SDS011;10905;50.822;4.336;2023-06-22T03:56:54;0.32;;;0.15;;
21486;SDS011;10905;50.822;4.336;2023-06-22T03:59:19;0.70;;;0.70;;
21486;SDS011;10905;50.822;4.336;2023-06-22T04:01:45;0.68;;;0.60;;
21486;SDS011;10905;50.822;4.336;2023-06-22T04:04:11;0.77;;;0.57;;
21486;SDS011;10905;50.822;4.336;2023-06-22T04:06:37;0.13;;;0.03;;
21486;SDS011;10905;50.822;4.336;2023-06-22T04:09:03;1.30;;;0.45;;
21486;SDS011;10905;50.822;4.336;2023-06-22T04:11:30;0.22;;;0.22;;
21486;SDS011;10905;50.822;4.336;2023-06-22T04:13:56;0.32;;;0.32;;
21486;SDS011;10905;50.822;4.336;2023-06-22T04:16:21;1.17;;;0.45;;
21486;SDS011;10905;50.822;4.336;2023-06-22T04:18:47;0.43;;;0.22;;
21486;SDS011;10905;50.822;4.336;2023-06-22T04:21:13;1.70;;;1.02;;
21486;SDS011;10905;50.822;4.336;2023-06-22T04:23:39;0.47;;;0.47;;
21486;SDS011;10905;50.822;4.336;2023-06-22T04:26:04;1.60;;;0.73;;
21486;SDS011;10905;50.822;4.336;2023-06-22T04:28:30;0.38;;;0.38;;
21486;SDS011;10905;50.822;4.336;2023-06-22T04:30:59;1.85;;;0.98;;
21486;SDS011;10905;50.822;4.336;2023-06-22T04:33:28;0.32;;;0.32;;
21486;SDS011;10905;50.822;4.336;2023-06-22T04:35:54;1.10;;;0.30;;
21486;SDS011;10905;50.822;4.336;2023-06-22T04:38:22;0.20;;;0.20;;
21486;SDS011;10905;50.822;4.336;2023-06-22T04:40:48;0.45;;;0.22;;
21486;SDS011;10905;50.822;4.336;2023-06-22T04:43:14;0.50;;;0.50;;
21486;SDS011;10905;50.822;4.336;2023-06-22T04:45:40;3.53;;;0.55;;
21486;SDS011;10905;50.822;4.336;2023-06-22T04:48:06;4.03;;;0.73;;
21486;SDS011;10905;50.822;4.336;2023-06-22T04:50:33;0.75;;;0.70;;
21486;SDS011;10905;50.822;4.336;2023-06-22T04:52:59;2.53;;;1.45;;
21486;SDS011;10905;50.822;4.336;2023-06-22T04:55:24;1.08;;;0.73;;
21486;SDS011;10905;50.822;4.336;2023-06-22T04:57:50;0.95;;;0.47;;
21486;SDS011;10905;50.822;4.336;2023-06-22T05:00:20;2.25;;;0.60;;
21486;SDS011;10905;50.822;4.336;2023-06-22T05:02:47;0.30;;;0.30;;
21486;SDS011;10905;50.822;4.336;2023-06-22T05:05:13;1.98;;;0.52;;
21486;SDS011;10905;50.822;4.336;2023-06-22T05:07:41;0.73;;;0.73;;
21486;SDS011;10905;50.822;4.336;2023-06-22T05:10:09;1.25;;;0.47;;
21486;SDS011;10905;50.822;4.336;2023-06-22T05:12:36;4.70;;;0.32;;
21486;SDS011;10905;50.822;4.336;2023-06-22T05:15:01;1.30;;;1.20;;
21486;SDS011;10905;50.822;4.336;2023-06-22T05:17:27;1.45;;;0.88;;
21486;SDS011;10905;50.822;4.336;2023-06-22T05:19:53;0.50;;;0.30;;
21486;SDS011;10905;50.822;4.336;2023-06-22T05:22:20;0.98;;;0.70;;
21486;SDS011;10905;50.822;4.336;2023-06-22T05:24:45;0.03;;;0.03;;
21486;SDS011;10905;50.822;4.336;2023-06-22T05:27:11;5.03;;;0.65;;
21486;SDS011;10905;50.822;4.336;2023-06-22T05:29:38;0.73;;;0.73;;
21486;SDS011;10905;50.822;4.336;2023-06-22T05:32:04;1.08;;;0.52;;
21486;SDS011;10905;50.822;4.336;2023-06-22T05:34:30;0.57;;;0.52;;
21486;SDS011;10905;50.822;4.336;2023-06-22T05:36:55;1.10;;;0.43;;
21486;SDS011;10905;50.822;4.336;2023-06-22T05:39:24;1.85;;;0.52;;
21486;SDS011;10905;50.822;4.336;2023-06-22T05:41:50;17.58;;;1.45;;
21486;SDS011;10905;50.822;4.336;2023-06-22T05:44:16;1.30;;;1.13;;
21486;SDS011;10905;50.822;4.336;2023-06-22T05:46:43;1.10;;;0.75;;
21486;SDS011;10905;50.822;4.336;2023-06-22T05:49:09;1.15;;;0.88;;
21486;SDS011;10905;50.822;4.336;2023-06-22T05:51:36;1.85;;;1.75;;
21486;SDS011;10905;50.822;4.336;2023-06-22T05:54:02;1.08;;;0.68;;
21486;SDS011;10905;50.822;4.336;2023-06-22T05:56:28;1.13;;;1.05;;
21486;SDS011;10905;50.822;4.336;2023-06-22T05:58:53;2.65;;;0.95;;
21486;SDS011;10905;50.822;4.336;2023-06-22T06:01:19;2.90;;;1.25;;
21486;SDS011;10905;50.822;4.336;2023-06-22T06:03:45;1.55;;;1.00;;
21486;SDS011;10905;50.822;4.336;2023-06-22T06:06:11;2.28;;;0.68;;
21486;SDS011;10905;50.822;4.336;2023-06-22T06:08:37;2.00;;;0.65;;
21486;SDS011;10905;50.822;4.336;2023-06-22T06:11:03;0.60;;;0.52;;
21486;SDS011;10905;50.822;4.336;2023-06-22T06:13:29;2.42;;;1.60;;
21486;SDS011;10905;50.822;4.336;2023-06-22T06:15:55;2.03;;;1.27;;
21486;SDS011;10905;50.822;4.336;2023-06-22T06:18:21;3.42;;;1.35;;
21486;SDS011;10905;50.822;4.336;2023-06-22T06:20:47;1.55;;;0.90;;
21486;SDS011;10905;50.822;4.336;2023-06-22T06:23:13;1.77;;;1.45;;
21486;SDS011;10905;50.822;4.336;2023-06-22T06:25:38;1.90;;;0.60;;
21486;SDS011;10905;50.822;4.336;2023-06-22T06:28:04;0.95;;;0.88;;
21486;SDS011;10905;50.822;4.336;2023-06-22T06:30:30;2.58;;;1.08;;
21486;SDS011;10905;50.822;4.336;2023-06-22T06:32:55;1.48;;;0.95;;
21486;SDS011;10905;50.822;4.336;2023-06-22T06:35:21;2.92;;;1.65;;
21486;SDS011;10905;50.822;4.336;2023-06-22T06:37:48;4.50;;;2.28;;
21486;SDS011;10905;50.822;4.336;2023-06-22T06:40:15;1.17;;;1.00;;
21486;SDS011;10905;50.822;4.336;2023-06-22T06:42:43;2.58;;;1.67;;
21486;SDS011;10905;50.822;4.336;2023-06-22T06:45:17;2.38;;;1.35;;
21486;SDS011;10905;50.822;4.336;2023-06-22T06:47:44;3.35;;;1.55;;
21486;SDS011;10905;50.822;4.336;2023-06-22T06:50:11;4.32;;;0.70;;
21486;SDS011;10905;50.822;4.336;2023-06-22T06:52:37;1.48;;;1.23;;
21486;SDS011;10905;50.822;4.336;2023-06-22T06:55:02;4.40;;;2.30;;
21486;SDS011;10905;50.822;4.336;2023-06-22T06:57:33;1.42;;;1.17;;
21486;SDS011;10905;50.822;4.336;2023-06-22T06:59:59;4.28;;;1.95;;
21486;SDS011;10905;50.822;4.336;2023-06-22T07:02:25;0.90;;;0.73;;
21486;SDS011;10905;50.822;4.336;2023-06-22T07:04:54;0.75;;;0.73;;
21486;SDS011;10905;50.822;4.336;2023-06-22T07:07:20;2.10;;;1.00;;
21486;SDS011;10905;50.822;4.336;2023-06-22T07:09:46;2.38;;;1.17;;
21486;SDS011;10905;50.822;4.336;2023-06-22T07:12:12;1.08;;;1.05;;
21486;SDS011;10905;50.822;4.336;2023-06-22T07:14:37;2.58;;;1.13;;
21486;SDS011;10905;50.822;4.336;2023-06-22T07:17:03;1.55;;;1.45;;
21486;SDS011;10905;50.822;4.336;2023-06-22T07:19:29;3.85;;;2.25;;
21486;SDS011;10905;50.822;4.336;2023-06-22T07:21:56;1.55;;;0.80;;
21486;SDS011;10905;50.822;4.336;2023-06-22T07:24:22;4.88;;;2.30;;
21486;SDS011;10905;50.822;4.336;2023-06-22T07:26:48;5.07;;;1.40;;
21486;SDS011;10905;50.822;4.336;2023-06-22T07:29:15;1.63;;;1.52;;
21486;SDS011;10905;50.822;4.336;2023-06-22T07:31:48;3.80;;;1.48;;
21486;SDS011;10905;50.822;4.336;2023-06-22T07:34:16;3.60;;;0.73;;
21486;SDS011;10905;50.822;4.336;2023-06-22T07:36:42;2.90;;;1.45;;
21486;SDS011;10905;50.822;4.336;2023-06-22T07:39:08;1.38;;;1.27;;
21486;SDS011;10905;50.822;4.336;2023-06-22T07:41:34;1.83;;;0.60;;
21486;SDS011;10905;50.822;4.336;2023-06-22T07:43:59;2.67;;;0.93;;
21486;SDS011;10905;50.822;4.336;2023-06-22T07:46:25;0.77;;;0.77;;
21486;SDS011;10905;50.822;4.336;2023-06-22T07:48:51;0.75;;;0.55;;
21486;SDS011;10905;50.822;4.336;2023-06-22T07:51:16;1.65;;;0.50;;
21486;SDS011;10905;50.822;4.336;2023-06-22T07:53:42;12.57;;;2.25;;
21486;SDS011;10905;50.822;4.336;2023-06-22T07:56:12;0.70;;;0.70;;
21486;SDS011;10905;50.822;4.336;2023-06-22T07:58:38;2.13;;;1.15;;
21486;SDS011;10905;50.822;4.336;2023-06-22T08:01:04;1.13;;;1.02;;
21486;SDS011;10905;50.822;4.336;2023-06-22T08:03:29;1.42;;;1.00;;
21486;SDS011;10905;50.822;4.336;2023-06-22T08:05:55;1.45;;;1.13;;
21486;SDS011;10905;50.822;4.336;2023-06-22T08:08:21;4.10;;;1.83;;
21486;SDS011;10905;50.822;4.336;2023-06-22T08:10:46;3.17;;;1.52;;
21486;SDS011;10905;50.822;4.336;2023-06-22T08:13:12;4.20;;;1.50;;
21486;SDS011;10905;50.822;4.336;2023-06-22T08:15:38;5.28;;;1.33;;
21486;SDS011;10905;50.822;4.336;2023-06-22T08:18:03;1.02;;;1.02;;
21486;SDS011;10905;50.822;4.336;2023-06-22T08:20:29;0.73;;;0.73;;
21486;SDS011;10905;50.822;4.336;2023-06-22T08:22:55;0.88;;;0.75;;
21486;SDS011;10905;50.822;4.336;2023-06-22T08:25:22;4.40;;;1.33;;
21486;SDS011;10905;50.822;4.336;2023-06-22T08:27:48;1.83;;;1.25;;
21486;SDS011;10905;50.822;4.336;2023-06-22T08:30:14;1.92;;;0.75;;
21486;SDS011;10905;50.822;4.336;2023-06-22T08:32:41;0.90;;;0.60;;
21486;SDS011;10905;50.822;4.336;2023-06-22T08:35:06;3.40;;;1.58;;
21486;SDS011;10905;50.822;4.336;2023-06-22T08:37:35;1.05;;;0.95;;
21486;SDS011;10905;50.822;4.336;2023-06-22T08:40:02;2.28;;;1.35;;
21486;SDS011;10905;50.822;4.336;2023-06-22T08:42:33;5.85;;;1.33;;
21486;SDS011;10905;50.822;4.336;2023-06-22T08:44:59;1.17;;;0.65;;
21486;SDS011;10905;50.822;4.336;2023-06-22T08:47:25;1.42;;;1.02;;
21486;SDS011;10905;50.822;4.336;2023-06-22T08:49:52;4.10;;;1.33;;
21486;SDS011;10905;50.822;4.336;2023-06-22T08:52:18;3.13;;;1.48;;
21486;SDS011;10905;50.822;4.336;2023-06-22T08:54:44;3.70;;;2.08;;
21486;SDS011;10905;50.822;4.336;2023-06-22T08:57:10;2.58;;;1.52;;
21486;SDS011;10905;50.822;4.336;2023-06-22T08:59:36;3.00;;;1.25;;
21486;SDS011;10905;50.822;4.336;2023-06-22T09:02:02;0.85;;;0.75;;
21486;SDS011;10905;50.822;4.336;2023-06-22T09:04:27;5.18;;;2.00;;
21486;SDS011;10905;50.822;4.336;2023-06-22T09:06:53;1.95;;;1.13;;
21486;SDS011;10905;50.822;4.336;2023-06-22T09:09:21;1.20;;;1.10;;
21486;SDS011;10905;50.822;4.336;2023-06-22T09:11:47;0.73;;;0.73;;
21486;SDS011;10905;50.822;4.336;2023-06-22T09:14:13;1.27;;;0.90;;
21486;SDS011;10905;50.822;4.336;2023-06-22T09:16:38;2.22;;;1.23;;
21486;SDS011;10905;50.822;4.336;2023-06-22T09:19:04;1.55;;;1.40;;
21486;SDS011;10905;50.822;4.336;2023-06-22T09:21:30;1.10;;;1.00;;
21486;SDS011;10905;50.822;4.336;2023-06-22T09:23:55;4.85;;;1.70;;
21486;SDS011;10905;50.822;4.336;2023-06-22T09:26:21;0.65;;;0.43;;
21486;SDS011;10905;50.822;4.336;2023-06-22T09:28:48;0.55;;;0.55;;
21486;SDS011;10905;50.822;4.336;2023-06-22T09:31:14;0.65;;;0.65;;
21486;SDS011;10905;50.822;4.336;2023-06-22T09:33:41;0.75;;;0.50;;
21486;SDS011;10905;50.822;4.336;2023-06-22T09:36:07;0.93;;;0.93;;
21486;SDS011;10905;50.822;4.336;2023-06-22T09:38:36;2.35;;;1.20;;
21486;SDS011;10905;50.822;4.336;2023-06-22T09:41:02;0.95;;;0.65;;
21486;SDS011;10905;50.822;4.336;2023-06-22T09:43:29;1.13;;;0.90;;
21486;SDS011;10905;50.822;4.336;2023-06-22T09:45:56;1.17;;;1.08;;
21486;SDS011;10905;50.822;4.336;2023-06-22T09:48:22;1.00;;;0.70;;
21486;SDS011;10905;50.822;4.336;2023-06-22T09:50:48;2.30;;;1.05;;
21486;SDS011;10905;50.822;4.336;2023-06-22T09:53:13;5.70;;;1.00;;
21486;SDS011;10905;50.822;4.336;2023-06-22T09:55:39;1.00;;;1.00;;
21486;SDS011;10905;50.822;4.336;2023-06-22T09:58:04;1.95;;;1.38;;
21486;SDS011;10905;50.822;4.336;2023-06-22T10:00:30;0.85;;;0.85;;
21486;SDS011;10905;50.822;4.336;2023-06-22T10:02:56;2.30;;;0.95;;
21486;SDS011;10905;50.822;4.336;2023-06-22T10:05:22;1.27;;;1.17;;
21486;SDS011;10905;50.822;4.336;2023-06-22T10:07:47;3.83;;;1.33;;
21486;SDS011;10905;50.822;4.336;2023-06-22T10:10:13;1.33;;;1.23;;
21486;SDS011;10905;50.822;4.336;2023-06-22T10:12:46;4.70;;;1.52;;
21486;SDS011;10905;50.822;4.336;2023-06-22T10:15:19;5.18;;;2.30;;
21486;SDS011;10905;50.822;4.336;2023-06-22T10:17:46;1.80;;;1.10;;
21486;SDS011;10905;50.822;4.336;2023-06-22T10:20:12;3.95;;;2.05;;
21486;SDS011;10905;50.822;4.336;2023-06-22T10:22:41;1.67;;;1.48;;
21486;SDS011;10905;50.822;4.336;2023-06-22T10:25:08;1.63;;;1.45;;
21486;SDS011;10905;50.822;4.336;2023-06-22T10:27:35;4.18;;;1.90;;
21486;SDS011;10905;50.822;4.336;2023-06-22T10:30:00;4.18;;;0.93;;
21486;SDS011;10905;50.822;4.336;2023-06-22T10:32:26;3.42;;;1.60;;
21486;SDS011;10905;50.822;4.336;2023-06-22T10:34:53;4.47;;;1.45;;
21486;SDS011;10905;50.822;4.336;2023-06-22T10:37:19;0.30;;;0.30;;
21486;SDS011;10905;50.822;4.336;2023-06-22T10:39:45;2.17;;;1.98;;
21486;SDS011;10905;50.822;4.336;2023-06-22T10:42:11;2.90;;;1.02;;
21486;SDS011;10905;50.822;4.336;2023-06-22T10:44:37;2.42;;;1.70;;
21486;SDS011;10905;50.822;4.336;2023-06-22T10:47:06;3.15;;;1.83;;
21486;SDS011;10905;50.822;4.336;2023-06-22T10:49:31;3.28;;;1.58;;
21486;SDS011;10905;50.822;4.336;2023-06-22T10:51:57;2.75;;;1.17;;
21486;SDS011;10905;50.822;4.336;2023-06-22T10:54:22;2.80;;;1.52;;
21486;SDS011;10905;50.822;4.336;2023-06-22T10:56:48;4.07;;;1.98;;
21486;SDS011;10905;50.822;4.336;2023-06-22T10:59:14;2.75;;;2.00;;
21486;SDS011;10905;50.822;4.336;2023-06-22T11:01:40;2.15;;;1.38;;
21486;SDS011;10905;50.822;4.336;2023-06-22T11:04:05;7.88;;;2.50;;
21486;SDS011;10905;50.822;4.336;2023-06-22T11:06:31;1.73;;;1.63;;
21486;SDS011;10905;50.822;4.336;2023-06-22T11:08:56;1.42;;;1.33;;
21486;SDS011;10905;50.822;4.336;2023-06-22T11:11:23;4.00;;;2.88;;
21486;SDS011;10905;50.822;4.336;2023-06-22T11:13:50;1.52;;;1.40;;
21486;SDS011;10905;50.822;4.336;2023-06-22T11:16:15;3.58;;;1.23;;
21486;SDS011;10905;50.822;4.336;2023-06-22T11:18:41;3.25;;;1.13;;
21486;SDS011;10905;50.822;4.336;2023-06-22T11:21:07;4.18;;;1.55;;
21486;SDS011;10905;50.822;4.336;2023-06-22T11:23:32;1.25;;;1.15;;
21486;SDS011;10905;50.822;4.336;2023-06-22T11:25:58;2.22;;;1.77;;
21486;SDS011;10905;50.822;4.336;2023-06-22T11:28:23;2.75;;;1.60;;
21486;SDS011;10905;50.822;4.336;2023-06-22T11:30:49;3.88;;;2.22;;
21486;SDS011;10905;50.822;4.336;2023-06-22T11:33:15;0.88;;;0.88;;
21486;SDS011;10905;50.822;4.336;2023-06-22T11:35:40;1.70;;;1.35;;
21486;SDS011;10905;50.822;4.336;2023-06-22T11:38:06;1.77;;;1.30;;
21486;SDS011;10905;50.822;4.336;2023-06-22T11:40:32;3.05;;;1.77;;
21486;SDS011;10905;50.822;4.336;2023-06-22T11:42:58;2.95;;;1.45;;
21486;SDS011;10905;50.822;4.336;2023-06-22T11:45:24;1.33;;;0.77;;
21486;SDS011;10905;50.822;4.336;2023-06-22T11:47:49;4.22;;;1.67;;
21486;SDS011;10905;50.822;4.336;2023-06-22T11:50:15;7.03;;;1.65;;
21486;SDS011;10905;50.822;4.336;2023-06-22T11:52:40;2.63;;;1.52;;
21486;SDS011;10905;50.822;4.336;2023-06-22T11:55:06;3.15;;;1.80;;
21486;SDS011;10905;50.822;4.336;2023-06-22T11:57:33;2.05;;;1.73;;
21486;SDS011;10905;50.822;4.336;2023-06-22T12:00:00;2.42;;;2.05;;
21486;SDS011;10905;50.822;4.336;2023-06-22T12:02:26;4.68;;;1.70;;
21486;SDS011;10905;50.822;4.336;2023-06-22T12:04:51;1.02;;;0.95;;
21486;SDS011;10905;50.822;4.336;2023-06-22T12:07:17;1.92;;;1.83;;
21486;SDS011;10905;50.822;4.336;2023-06-22T12:09:43;4.40;;;1.73;;
21486;SDS011;10905;50.822;4.336;2023-06-22T12:12:09;2.92;;;1.55;;
21486;SDS011;10905;50.822;4.336;2023-06-22T12:14:35;2.60;;;2.08;;
21486;SDS011;10905;50.822;4.336;2023-06-22T12:17:01;2.20;;;1.50;;
21486;SDS011;10905;50.822;4.336;2023-06-22T12:19:26;2.65;;;1.75;;
21486;SDS011;10905;50.822;4.336;2023-06-22T12:21:52;1.80;;;1.70;;
21486;SDS011;10905;50.822;4.336;2023-06-22T12:24:17;1.42;;;1.15;;
21486;SDS011;10905;50.822;4.336;2023-06-22T12:26:43;1.23;;;0.90;;
21486;SDS011;10905;50.822;4.336;2023-06-22T12:29:09;3.90;;;1.95;;
21486;SDS011;10905;50.822;4.336;2023-06-22T12:31:35;1.60;;;1.50;;
21486;SDS011;10905;50.822;4.336;2023-06-22T12:34:03;0.73;;;0.73;;
21486;SDS011;10905;50.822;4.336;2023-06-22T12:36:29;2.45;;;2.00;;
21486;SDS011;10905;50.822;4.336;2023-06-22T12:38:55;22.10;;;3.40;;
21486;SDS011;10905;50.822;4.336;2023-06-22T12:41:20;1.90;;;0.98;;
21486;SDS011;10905;50.822;4.336;2023-06-22T12:43:46;2.33;;;1.33;;
21486;SDS011;10905;50.822;4.336;2023-06-22T12:46:11;4.82;;;2.95;;
21486;SDS011;10905;50.822;4.336;2023-06-22T12:48:37;2.95;;;1.83;;
21486;SDS011;10905;50.822;4.336;2023-06-22T12:51:07;5.38;;;2.70;;
21486;SDS011;10905;50.822;4.336;2023-06-22T12:53:34;2.33;;;1.40;;
21486;SDS011;10905;50.822;4.336;2023-06-22T12:56:00;2.42;;;1.90;;
21486;SDS011;10905;50.822;4.336;2023-06-22T12:58:25;6.85;;;2.30;;
21486;SDS011;10905;50.822;4.336;2023-06-22T13:00:51;4.75;;;2.38;;
21486;SDS011;10905;50.822;4.336;2023-06-22T13:03:17;2.78;;;1.92;;
21486;SDS011;10905;50.822;4.336;2023-06-22T13:05:43;2.70;;;2.42;;
21486;SDS011;10905;50.822;4.336;2023-06-22T13:08:09;3.97;;;2.67;;
21486;SDS011;10905;50.822;4.336;2023-06-22T13:10:36;2.60;;;2.20;;
21486;SDS011;10905;50.822;4.336;2023-06-22T13:13:01;5.15;;;2.55;;
21486;SDS011;10905;50.822;4.336;2023-06-22T13:15:28;1.38;;;1.27;;
21486;SDS011;10905;50.822;4.336;2023-06-22T13:17:54;2.28;;;2.08;;
21486;SDS011;10905;50.822;4.336;2023-06-22T13:20:20;3.00;;;2.55;;
21486;SDS011;10905;50.822;4.336;2023-06-22T13:22:46;3.50;;;2.22;;
21486;SDS011;10905;50.822;4.336;2023-06-22T13:25:12;2.05;;;1.83;;
21486;SDS011;10905;50.822;4.336;2023-06-22T13:27:41;3.15;;;1.73;;
21486;SDS011;10905;50.822;4.336;2023-06-22T13:30:07;5.40;;;3.40;;
21486;SDS011;10905;50.822;4.336;2023-06-22T13:32:34;2.30;;;2.08;;
21486;SDS011;10905;50.822;4.336;2023-06-22T13:34:59;3.40;;;1.98;;
21486;SDS011;10905;50.822;4.336;2023-06-22T13:37:25;3.13;;;2.83;;
21486;SDS011;10905;50.822;4.336;2023-06-22T13:39:52;5.70;;;2.75;;
21486;SDS011;10905;50.822;4.336;2023-06-22T13:42:18;1.77;;;1.67;;
21486;SDS011;10905;50.822;4.336;2023-06-22T13:44:44;3.88;;;3.13;;
21486;SDS011;10905;50.822;4.336;2023-06-22T13:47:09;4.60;;;2.17;;
21486;SDS011;10905;50.822;4.336;2023-06-22T13:49:35;4.18;;;1.77;;
21486;SDS011;10905;50.822;4.336;2023-06-22T13:52:01;3.08;;;1.98;;
21486;SDS011;10905;50.822;4.336;2023-06-22T13:54:28;2.78;;;1.55;;
21486;SDS011;10905;50.822;4.336;2023-06-22T13:56:54;2.95;;;1.95;;
21486;SDS011;10905;50.822;4.336;2023-06-22T13:59:19;1.10;;;1.00;;
21486;SDS011;10905;50.822;4.336;2023-06-22T14:01:46;2.92;;;1.85;;
21486;SDS011;10905;50.822;4.336;2023-06-22T14:04:11;6.80;;;1.58;;
21486;SDS011;10905;50.822;4.336;2023-06-22T14:06:37;2.13;;;2.03;;
21486;SDS011;10905;50.822;4.336;2023-06-22T14:09:03;4.10;;;2.22;;
21486;SDS011;10905;50.822;4.336;2023-06-22T14:11:29;10.60;;;2.10;;
21486;SDS011;10905;50.822;4.336;2023-06-22T14:13:54;5.03;;;2.35;;
21486;SDS011;10905;50.822;4.336;2023-06-22T14:16:20;5.47;;;3.08;;
21486;SDS011;10905;50.822;4.336;2023-06-22T14:18:46;3.97;;;2.45;;
21486;SDS011;10905;50.822;4.336;2023-06-22T14:21:11;8.95;;;2.15;;
21486;SDS011;10905;50.822;4.336;2023-06-22T14:23:37;3.15;;;1.77;;
21486;SDS011;10905;50.822;4.336;2023-06-22T14:26:03;2.28;;;2.08;;
21486;SDS011;10905;50.822;4.336;2023-06-22T14:28:28;2.15;;;1.95;;
21486;SDS011;10905;50.822;4.336;2023-06-22T14:30:54;4.32;;;1.58;;
21486;SDS011;10905;50.822;4.336;2023-06-22T14:33:21;1.65;;;1.55;;
21486;SDS011;10905;50.822;4.336;2023-06-22T14:35:47;3.13;;;2.53;;
21486;SDS011;10905;50.822;4.336;2023-06-22T14:38:12;5.13;;;1.98;;
21486;SDS011;10905;50.822;4.336;2023-06-22T14:40:38;3.38;;;2.13;;
21486;SDS011;10905;50.822;4.336;2023-06-22T14:43:03;7.22;;;1.63;;
21486;SDS011;10905;50.822;4.336;2023-06-22T14:45:29;1.92;;;1.50;;
21486;SDS011;10905;50.822;4.336;2023-06-22T14:47:55;2.13;;;1.65;;
21486;SDS011;10905;50.822;4.336;2023-06-22T14:50:20;4.25;;;2.72;;
21486;SDS011;10905;50.822;4.336;2023-06-22T14:52:46;5.65;;;2.63;;